createdAt,value
2023-01-07T00:00:21.267Z,9.77
2023-01-07T00:05:20.221Z,10.13
2023-01-07T00:10:18.960Z,8.48
2023-01-07T00:15:19.123Z,11.98
2023-01-07T00:20:18.129Z,9.70
2023-01-07T00:25:17.091Z,10.48
2023-01-07T00:30:15.951Z,10.88
2023-01-07T00:35:23.420Z,9.20
2023-01-07T00:40:23.159Z,15.05
2023-01-07T00:45:22.175Z,11.38
2023-01-07T00:50:22.996Z,9.90
2023-01-07T00:55:22.089Z,15.15
2023-01-07T01:00:22.863Z,11.15
2023-01-07T01:05:23.796Z,9.45
2023-01-07T01:10:22.569Z,8.88
2023-01-07T01:15:21.775Z,9.55
2023-01-07T01:20:22.538Z,7.97
2023-01-07T01:25:21.445Z,8.23
2023-01-07T01:30:20.930Z,11.35
2023-01-07T01:35:19.888Z,10.43
2023-01-07T01:40:20.686Z,11.82
2023-01-07T01:45:20.789Z,15.90
2023-01-07T01:50:25.269Z,16.00
2023-01-07T01:55:30.553Z,11.10
2023-01-07T02:00:30.893Z,7.57
2023-01-07T02:05:34.212Z,6.28
2023-01-07T02:10:35.293Z,5.40
2023-01-07T02:15:53.320Z,5.63
2023-01-07T02:21:02.272Z,6.55
2023-01-07T02:26:42.833Z,6.35
2023-01-07T02:32:11.658Z,6.72
2023-01-07T02:37:16.029Z,5.70
2023-01-07T02:42:24.715Z,7.38
2023-01-07T02:47:29.628Z,6.78
2023-01-07T02:52:35.248Z,8.73
2023-01-07T02:57:56.037Z,7.72
2023-01-07T03:03:15.370Z,7.50
2023-01-07T03:08:36.014Z,6.68
2023-01-07T03:13:40.280Z,8.55
2023-01-07T03:18:47.342Z,8.00
2023-01-07T03:23:51.901Z,9.18
2023-01-07T03:28:52.462Z,9.48
2023-01-07T03:33:56.955Z,10.65
2023-01-07T03:38:57.582Z,10.77
2023-01-07T03:43:57.589Z,9.68
2023-01-07T03:48:58.104Z,9.65
2023-01-07T03:53:57.185Z,9.50
2023-01-07T03:58:56.416Z,10.07
2023-01-07T04:03:55.485Z,11.25
2023-01-07T04:08:56.268Z,11.27
2023-01-07T04:13:55.196Z,12.57
2023-01-07T04:18:54.188Z,12.38
2023-01-07T04:23:53.181Z,12.55
2023-01-07T04:28:53.681Z,11.88
2023-01-07T04:33:52.583Z,10.15
2023-01-07T04:38:51.998Z,11.70
2023-01-07T04:43:51.284Z,13.95
2023-01-07T04:48:51.533Z,15.88
2023-01-07T04:53:50.535Z,16.50
2023-01-07T04:58:49.580Z,15.63
2023-01-07T05:03:51.080Z,13.57
2023-01-07T05:08:49.980Z,15.55
2023-01-07T05:13:50.933Z,18.00
2023-01-07T05:18:52.151Z,19.40
2023-01-07T05:23:52.094Z,12.95
2023-01-07T05:28:51.367Z,16.08
2023-01-07T05:33:51.627Z,44.83
2023-01-07T05:38:50.614Z,37.47
2023-01-07T05:43:49.601Z,20.95
2023-01-07T05:48:48.503Z,19.27
2023-01-07T05:53:48.699Z,12.48
2023-01-07T05:58:47.505Z,11.48
2023-01-07T06:03:46.551Z,15.18
2023-01-07T06:08:45.526Z,12.43
2023-01-07T06:13:45.703Z,11.38
2023-01-07T06:18:44.520Z,13.68
2023-01-07T06:23:43.612Z,13.85
2023-01-07T06:28:42.436Z,14.25
2023-01-07T06:33:42.547Z,16.33
2023-01-07T06:38:41.785Z,17.83
2023-01-07T06:43:40.589Z,17.38
2023-01-07T06:48:39.455Z,15.25
2023-01-07T06:53:39.611Z,20.92
2023-01-07T06:58:38.410Z,24.17
2023-01-07T07:03:39.225Z,23.08
2023-01-07T07:08:39.482Z,18.35
2023-01-07T07:13:38.232Z,15.50
2023-01-07T07:18:37.134Z,15.25
2023-01-07T07:23:35.927Z,15.57
2023-01-07T07:28:36.030Z,16.30
2023-01-07T07:33:34.707Z,20.67
2023-01-07T07:38:33.495Z,17.67
2023-01-07T07:43:32.275Z,14.38
2023-01-07T07:48:32.455Z,14.90
2023-01-07T07:53:31.323Z,16.65
2023-01-07T07:58:30.168Z,15.05
2023-01-07T08:03:29.272Z,10.05
2023-01-07T08:08:31.377Z,11.18
2023-01-07T08:13:32.227Z,10.15
2023-01-07T08:18:32.826Z,10.13
2023-01-07T08:23:34.932Z,8.32
2023-01-07T08:28:35.004Z,12.98
2023-01-07T08:33:37.705Z,10.52
2023-01-07T08:38:38.033Z,9.57
2023-01-07T08:43:36.841Z,11.35
2023-01-07T08:48:35.944Z,10.85
2023-01-07T08:53:35.351Z,11.45
2023-01-07T08:58:35.657Z,12.75
2023-01-07T09:03:34.592Z,11.48
2023-01-07T09:08:33.461Z,10.80
2023-01-07T09:13:32.276Z,10.75
2023-01-07T09:18:32.516Z,9.25
2023-01-07T09:23:31.294Z,10.68
2023-01-07T09:28:30.416Z,9.75
2023-01-07T09:33:29.205Z,11.05
2023-01-07T09:38:30.046Z,9.07
2023-01-07T09:43:58.777Z,10.52
2023-01-07T09:48:58.629Z,10.40
2023-01-07T09:54:02.881Z,9.80
2023-01-07T09:59:02.936Z,9.27
2023-01-07T10:04:16.703Z,11.30
2023-01-07T10:09:30.593Z,11.45
2023-01-07T10:14:49.814Z,10.20
2023-01-07T10:19:56.237Z,9.77
2023-01-07T10:25:01.333Z,10.15
2023-01-07T10:30:06.737Z,9.40
2023-01-07T10:35:14.019Z,13.75
2023-01-07T10:40:26.497Z,11.95
2023-01-07T10:45:38.677Z,10.47
2023-01-07T10:51:04.851Z,10.30
2023-01-07T10:56:17.646Z,10.57
2023-01-07T11:01:24.600Z,10.20
2023-01-07T11:06:32.972Z,10.73
2023-01-07T11:11:34.676Z,12.70
2023-01-07T11:16:38.336Z,11.18
2023-01-07T11:21:43.951Z,12.60
2023-01-07T11:26:47.920Z,12.15
2023-01-07T11:31:51.596Z,10.18
2023-01-07T11:36:50.424Z,10.70
2023-01-07T11:42:21.562Z,12.40
2023-01-07T11:47:21.096Z,10.57
2023-01-07T11:52:21.339Z,10.70
2023-01-07T11:57:25.580Z,9.63
2023-01-07T12:02:28.024Z,9.82
2023-01-07T12:07:27.193Z,10.18
2023-01-07T12:12:37.108Z,10.35
2023-01-07T12:17:36.921Z,10.02
2023-01-07T12:22:47.999Z,10.48
2023-01-07T12:27:58.027Z,10.88
2023-01-07T12:33:12.035Z,10.18
2023-01-07T12:38:14.760Z,8.88
2023-01-07T12:58:41.184Z,8.35
2023-01-07T13:03:50.749Z,8.07
2023-01-07T13:08:59.330Z,8.43
2023-01-07T13:13:59.691Z,8.88
2023-01-07T13:18:58.477Z,9.88
2023-01-07T13:24:56.199Z,9.63
2023-01-07T13:30:03.499Z,9.15
2023-01-07T13:35:20.532Z,8.57
2023-01-07T13:40:36.261Z,9.07
2023-01-07T13:45:39.430Z,9.55
2023-01-07T13:50:41.871Z,10.93
2023-01-07T13:55:42.788Z,9.80
2023-01-07T14:01:02.619Z,9.70
2023-01-07T14:06:34.114Z,10.27
2023-01-07T14:11:53.670Z,11.18
2023-01-07T14:17:03.430Z,12.27
2023-01-07T14:22:10.706Z,16.50
2023-01-07T14:27:35.422Z,13.75
2023-01-07T14:32:37.800Z,17.92
2023-01-07T14:37:39.275Z,20.70
2023-01-07T14:42:43.962Z,29.67
2023-01-07T14:47:56.752Z,25.35
2023-01-07T14:53:46.751Z,34.80
2023-01-07T14:59:16.268Z,42.42
2023-01-07T15:04:38.568Z,28.65
2023-01-07T15:10:00.089Z,61.45
2023-01-07T15:15:24.861Z,41.60
2023-01-07T15:20:28.279Z,33.40
2023-01-07T15:25:36.201Z,29.70
2023-01-07T15:30:44.565Z,28.60
2023-01-07T15:35:45.955Z,26.08
2023-01-07T15:40:47.910Z,28.27
2023-01-07T15:45:46.951Z,56.97
2023-01-07T15:50:47.592Z,39.97
2023-01-07T15:55:54.009Z,45.08
2023-01-07T16:00:53.692Z,41.08
2023-01-07T16:05:54.392Z,37.25
2023-01-07T16:11:02.331Z,61.95
2023-01-07T16:16:03.588Z,60.97
2023-01-07T16:21:07.394Z,52.10
2023-01-07T16:26:08.724Z,46.97
2023-01-07T16:31:11.877Z,56.50
2023-01-07T16:41:23.053Z,68.72
2023-01-07T16:46:26.077Z,63.50
2023-01-07T16:51:41.028Z,89.68
2023-01-07T16:56:39.836Z,82.38
2023-01-07T17:01:38.815Z,58.35
2023-01-07T17:06:44.032Z,64.13
2023-01-07T17:11:42.874Z,66.20
2023-01-07T17:16:42.482Z,73.35
2023-01-07T17:21:44.934Z,83.70
2023-01-07T17:26:49.023Z,91.77
2023-01-07T17:31:48.451Z,106.07
2023-01-07T17:36:50.775Z,90.03
2023-01-07T17:42:06.963Z,93.00
2023-01-07T17:47:09.911Z,87.93
2023-01-07T17:52:12.014Z,86.70
2023-01-07T17:57:12.971Z,81.97
2023-01-07T18:02:17.025Z,82.72
2023-01-07T18:07:17.583Z,73.95
2023-01-07T18:12:34.613Z,71.50
2023-01-07T18:17:33.480Z,64.15
2023-01-07T18:22:33.728Z,55.88
2023-01-07T18:27:32.491Z,69.07
2023-01-07T18:32:31.292Z,66.78
2023-01-07T18:37:30.097Z,59.42
2023-01-07T18:42:30.422Z,54.70
2023-01-07T18:47:29.211Z,56.63
2023-01-07T18:52:28.961Z,60.50
2023-01-07T18:57:29.090Z,79.00
2023-01-07T19:02:27.807Z,86.03
2023-01-07T19:07:26.728Z,129.70
2023-01-07T19:12:25.660Z,125.47
2023-01-07T19:17:27.898Z,121.07
2023-01-07T19:22:26.846Z,119.10
2023-01-07T19:27:25.791Z,106.35
2023-01-07T19:32:24.602Z,78.10
2023-01-07T19:37:24.746Z,122.63
2023-01-07T19:42:23.618Z,98.13
2023-01-07T19:47:22.494Z,88.97
2023-01-07T19:52:21.304Z,85.07
2023-01-07T19:57:21.621Z,75.57
2023-01-07T20:02:20.574Z,72.50
2023-01-07T20:07:19.600Z,59.70
2023-01-07T20:12:19.728Z,51.97
2023-01-07T20:17:19.929Z,46.25
2023-01-07T20:22:18.927Z,47.03
2023-01-07T20:27:17.825Z,41.80
2023-01-07T20:32:18.383Z,42.70
2023-01-07T20:37:24.097Z,42.72
2023-01-07T20:42:22.902Z,47.00
2023-01-07T20:47:21.745Z,46.80
2023-01-07T20:52:21.963Z,49.67
2023-01-07T20:57:20.791Z,46.08
2023-01-07T21:02:19.769Z,47.90
2023-01-07T21:07:18.802Z,54.00
2023-01-07T21:12:19.102Z,59.20
2023-01-07T21:17:17.990Z,52.05
2023-01-07T21:22:16.897Z,53.25
2023-01-07T21:27:15.795Z,52.95
2023-01-07T21:32:16.003Z,52.28
2023-01-07T21:37:14.810Z,48.58
2023-01-07T21:42:13.656Z,46.45
2023-01-07T21:47:12.526Z,45.38
2023-01-07T21:52:12.744Z,52.78
2023-01-07T21:57:11.652Z,48.63
2023-01-07T22:02:11.352Z,50.72
2023-01-07T22:07:16.115Z,47.63
2023-01-07T22:12:16.418Z,52.05
2023-01-07T22:17:16.198Z,51.42
2023-01-07T22:22:16.947Z,55.95
2023-01-07T22:27:15.944Z,55.85
2023-01-07T22:32:14.769Z,56.92
2023-01-07T22:37:18.146Z,55.17
2023-01-07T22:42:21.491Z,59.53
2023-01-07T22:47:23.700Z,61.35
2023-01-07T22:52:24.272Z,59.80
2023-01-07T22:57:23.205Z,48.70
2023-01-07T23:02:21.987Z,48.58
2023-01-07T23:07:20.712Z,41.38
2023-01-07T23:12:20.942Z,46.72
2023-01-07T23:17:19.725Z,47.90
2023-01-07T23:22:18.517Z,56.05
2023-01-07T23:27:17.321Z,57.55
2023-01-07T23:32:17.631Z,64.68
2023-01-07T23:37:16.461Z,66.00
2023-01-07T23:42:15.249Z,72.10
2023-01-07T23:47:14.133Z,61.72
2023-01-07T23:52:14.283Z,52.33
2023-01-07T23:57:13.299Z,48.20
